Time;durP1;ratioP1;P1;durP2;ratioP2;P2;SDS_P1;SDS_P2;PMS_P1;PMS_P2;Temp;Humidity;BMP_temperature;BMP_pressure;BME280_temperature;BME280_humidity;BME280_pressure;Samples;Min_cycle;Max_cycle;Signal;HPM_P1;HPM_P2
2022/07/08 00:01:06;;;;;;;8.70;2.60;;;13.20;89.60;;;12.16;81.26;98858.09;5010742;28;20584;-74
2022/07/08 00:03:34;;;;;;;7.50;3.43;;;13.30;89.20;;;12.19;79.67;98866.63;5002165;28;20842;-74
2022/07/08 00:06:01;;;;;;;3.97;1.93;;;13.30;87.80;;;12.16;79.90;98874.38;5002486;28;20535;-71
2022/07/08 00:08:30;;;;;;;11.97;2.57;;;13.30;87.30;;;12.17;79.92;98874.13;4997950;28;20472;-74
2022/07/08 00:10:58;;;;;;;4.33;2.50;;;13.30;87.90;;;12.08;80.03;98877.25;4999805;28;20455;-71
2022/07/08 00:13:25;;;;;;;4.50;2.33;;;13.20;88.00;;;12.15;81.07;98876.22;5006971;28;20466;-72
2022/07/08 00:15:52;;;;;;;3.47;2.30;;;13.20;89.40;;;11.98;80.18;98888.44;4998791;28;20464;-72
2022/07/08 00:18:19;;;;;;;5.63;2.70;;;13.10;87.90;;;11.90;80.03;98876.75;4998182;28;20444;-73
2022/07/08 00:20:47;;;;;;;7.07;3.50;;;13.10;87.60;;;11.80;81.62;98870.88;5009101;28;20563;-71
2022/07/08 00:23:14;;;;;;;5.47;2.37;;;12.90;89.00;;;11.67;81.33;98860.81;4997555;28;20459;-72
2022/07/08 00:25:43;;;;;;;5.63;2.73;;;12.90;89.40;;;11.46;81.92;98829.31;5002338;28;20554;-72
2022/07/08 00:28:10;;;;;;;4.23;2.40;;;12.80;90.00;;;11.30;81.73;98835.88;4997166;28;20455;-73
2022/07/08 00:30:38;;;;;;;4.93;3.07;;;12.80;90.30;;;11.56;82.39;98878.47;4999266;28;20546;-73
2022/07/08 00:33:05;;;;;;;6.03;2.90;;;12.70;90.90;;;11.46;83.79;98888.84;4996221;28;21033;-72
2022/07/08 00:35:33;;;;;;;5.40;2.90;;;12.60;91.60;;;11.32;84.66;98875.25;4999274;28;20503;-73
2022/07/08 00:38:00;;;;;;;6.30;2.40;;;12.50;91.70;;;11.35;84.08;98884.81;4998297;28;20473;-72
2022/07/08 00:40:27;;;;;;;5.80;2.87;;;12.50;91.90;;;11.17;84.34;98861.81;4997401;28;20541;-73
2022/07/08 00:42:56;;;;;;;5.63;2.73;;;12.50;92.30;;;11.21;85.20;98889.31;4997208;28;20536;-73
2022/07/08 00:45:23;;;;;;;5.27;2.97;;;12.40;92.50;;;11.24;85.99;98894.31;4999276;28;20455;-73
2022/07/08 00:47:51;;;;;;;5.63;2.87;;;12.40;93.50;;;11.24;86.38;98888.91;4999788;28;20463;-74
2022/07/08 00:50:18;;;;;;;3.80;3.10;;;12.30;93.60;;;11.13;86.31;98892.16;4999644;28;20944;-72
2022/07/08 00:52:46;;;;;;;5.07;2.87;;;12.30;93.40;;;11.11;87.24;98896.94;5001055;28;20462;-73
2022/07/08 00:55:14;;;;;;;4.50;3.20;;;12.30;93.40;;;11.03;86.56;98898.78;5002187;28;20947;-74
2022/07/08 00:57:41;;;;;;;4.60;3.13;;;12.20;93.50;;;11.03;86.78;98895.22;5004456;28;21049;-72
2022/07/08 01:00:11;;;;;;;4.93;2.30;;;12.20;94.10;;;10.84;87.98;98884.06;5001595;28;20627;-74
2022/07/08 01:02:39;;;;;;;7.30;3.30;;;12.10;94.30;;;10.86;88.30;98897.41;5000903;28;20488;-73
2022/07/08 01:05:08;;;;;;;2.77;2.57;;;12.10;94.50;;;10.88;88.75;98906.16;5013937;28;20457;-73
2022/07/08 01:07:36;;;;;;;5.50;3.40;;;12.00;94.70;;;10.72;88.91;98908.09;4996710;28;20459;-74
2022/07/08 01:10:05;;;;;;;6.47;3.20;;;12.00;95.20;;;10.71;88.67;98901.03;4995820;28;20467;-73
2022/07/08 01:12:32;;;;;;;6.03;2.93;;;11.90;95.20;;;10.66;88.90;98911.56;4999131;28;20470;-75
2022/07/08 01:15:00;;;;;;;7.07;3.07;;;11.80;94.80;;;10.64;88.42;98910.91;4997345;28;20463;-76
2022/07/08 01:17:29;;;;;;;5.40;2.87;;;11.80;94.90;;;10.58;88.27;98904.44;5014837;28;20452;-74
2022/07/08 01:19:56;;;;;;;6.67;3.37;;;11.80;95.20;;;10.57;88.15;98905.47;4994165;28;20538;-75
2022/07/08 01:22:25;;;;;;;4.93;2.80;;;11.70;94.70;;;10.57;88.90;98915.44;4998644;28;20470;-74
2022/07/08 01:24:52;;;;;;;7.57;3.97;;;11.70;95.60;;;10.41;88.26;98917.38;4998027;28;20870;-73
2022/07/08 01:27:20;;;;;;;7.07;3.47;;;11.60;94.90;;;10.42;87.87;98919.03;5004119;28;20477;-77
2022/07/08 01:29:47;;;;;;;7.03;3.87;;;11.60;94.90;;;10.42;88.46;98910.94;5000235;28;21017;-74
2022/07/08 01:32:15;;;;;;;5.87;3.53;;;11.60;95.30;;;10.56;87.85;98929.97;5000795;28;21041;-72
2022/07/08 01:34:42;;;;;;;6.53;3.40;;;11.60;95.40;;;10.70;87.97;98923.69;4996909;28;20979;-73
2022/07/08 01:37:09;;;;;;;8.87;3.30;;;11.70;94.60;;;10.66;86.12;98929.66;5001882;28;20468;-75
2022/07/08 01:39:38;;;;;;;4.93;3.03;;;11.80;93.50;;;10.70;85.71;98915.56;4995386;28;20560;-73
2022/07/08 01:42:06;;;;;;;7.63;3.40;;;11.90;92.60;;;10.85;85.13;98933.56;5009570;28;20481;-73
2022/07/08 01:44:33;;;;;;;12.00;3.37;;;12.00;92.20;;;10.94;83.51;98936.97;4997990;28;20475;-72
2022/07/08 01:47:00;;;;;;;6.50;3.10;;;12.10;91.50;;;11.03;83.43;98933.09;4996976;28;20467;-72
2022/07/08 01:49:28;;;;;;;4.60;2.80;;;12.10;91.20;;;10.95;83.47;98934.06;4994336;28;20505;-73
2022/07/08 01:51:55;;;;;;;5.60;2.67;;;12.10;90.70;;;10.98;83.06;98930.13;4993090;28;20473;-74
2022/07/08 01:54:22;;;;;;;8.03;3.13;;;12.10;90.60;;;10.95;83.65;98927.84;5002781;28;20468;-71
2022/07/08 01:57:13;;;;;;;6.80;3.07;;;12.10;91.10;;;10.99;82.84;98940.75;5002494;28;20546;-72
2022/07/08 01:59:38;;;;;;;3.70;2.70;;;12.10;90.40;;;10.89;83.05;98934.84;5000734;28;21329;-73
2022/07/08 02:02:06;;;;;;;6.77;2.67;;;12.10;90.50;;;10.82;83.98;98942.06;4998091;28;20561;-73
2022/07/08 02:04:33;;;;;;;6.40;2.80;;;12.00;91.00;;;10.74;83.56;98935.75;4994919;28;20464;-72
2022/07/08 02:07:00;;;;;;;4.10;2.37;;;11.90;90.80;;;10.75;83.77;98928.47;5005365;28;20561;-73
2022/07/08 02:09:27;;;;;;;4.30;2.87;;;11.90;91.20;;;10.53;85.43;98930.34;5003249;28;20494;-71
2022/07/08 02:14:41;;;;;;;6.33;3.10;;;11.60;91.90;;;10.33;85.16;98929.09;4997220;28;20455;-73
2022/07/08 02:17:08;;;;;;;6.73;2.90;;;11.50;92.30;;;10.32;85.94;98935.53;4992742;28;20470;-73
2022/07/08 02:19:36;;;;;;;5.60;3.20;;;11.50;92.40;;;10.18;86.50;98936.41;5010302;28;20727;-72
2022/07/08 02:22:04;;;;;;;6.17;3.00;;;11.40;93.00;;;10.03;86.75;98910.28;5014615;28;20919;-72
2022/07/08 02:24:32;;;;;;;8.70;3.50;;;11.40;93.40;;;10.23;86.22;98935.81;4995010;28;20458;-75
2022/07/08 02:27:00;;;;;;;5.50;3.30;;;11.40;93.00;;;10.04;87.69;98933.56;4997819;28;20981;-73
2022/07/08 02:29:28;;;;;;;9.50;3.67;;;11.20;93.60;;;9.95;87.85;98939.25;5010138;28;20491;-73
2022/07/08 02:31:55;;;;;;;4.70;2.80;;;11.20;94.20;;;9.87;88.75;98941.03;4995472;28;20447;-74
2022/07/08 02:34:22;;;;;;;6.60;3.30;;;11.10;94.80;;;9.83;88.55;98944.28;4995357;28;20838;-73
2022/07/08 02:36:50;;;;;;;8.27;3.40;;;11.00;95.10;;;9.87;89.10;98941.03;5000629;28;20522;-73
2022/07/08 02:39:17;;;;;;;6.40;3.30;;;11.10;95.40;;;9.91;88.71;98941.50;4994231;28;20458;-74
2022/07/08 02:41:45;;;;;;;7.33;3.57;;;11.10;95.00;;;9.92;88.27;98946.69;4981505;28;20764;-72
2022/07/08 02:44:14;;;;;;;7.37;2.83;;;11.10;94.90;;;9.98;88.33;98950.50;4995139;28;20485;-74
2022/07/08 02:46:41;;;;;;;6.37;3.47;;;11.10;95.10;;;9.82;89.46;98951.56;4993837;28;20460;-72
2022/07/08 02:49:09;;;;;;;4.73;3.00;;;11.00;95.10;;;9.75;90.19;98962.25;4996292;28;20472;-74
2022/07/08 02:51:37;;;;;;;6.33;3.10;;;10.90;95.90;;;9.57;90.33;98929.44;4998543;28;20471;-72
2022/07/08 02:54:05;;;;;;;7.33;3.80;;;10.90;96.70;;;9.74;90.70;98959.75;4996857;28;20471;-72
2022/07/08 02:56:33;;;;;;;7.37;3.37;;;10.90;97.40;;;9.72;90.86;98956.41;5001639;28;20463;-73
2022/07/08 02:59:01;;;;;;;4.43;3.93;;;10.90;97.60;;;9.78;90.10;98955.63;4997147;28;20545;-73
2022/07/08 03:01:30;;;;;;;5.40;3.40;;;10.90;98.00;;;9.69;90.66;98946.81;4996854;28;20488;-74
2022/07/08 03:03:57;;;;;;;4.73;3.00;;;10.90;97.40;;;9.84;90.51;98954.91;5000765;28;20478;-74
2022/07/08 03:06:24;;;;;;;6.20;3.60;;;11.00;97.20;;;9.83;89.73;98952.38;5002284;28;20445;-74
2022/07/08 03:08:51;;;;;;;3.90;3.40;;;11.10;96.20;;;9.98;89.80;98965.88;4996430;28;20506;-74
2022/07/08 03:11:19;;;;;;;5.80;4.43;;;11.10;97.20;;;9.97;89.86;98967.72;5003878;28;20465;-74
2022/07/08 03:13:46;;;;;;;7.17;5.00;;;11.10;96.70;;;10.01;89.78;98957.38;5006578;28;20462;-74
2022/07/08 03:16:13;;;;;;;10.10;5.53;;;11.20;96.40;;;10.09;89.40;98962.69;5003076;28;21060;-73
2022/07/08 03:18:42;;;;;;;9.00;4.60;;;11.20;96.00;;;10.16;88.70;98969.00;5001787;28;20525;-74
2022/07/08 03:21:09;;;;;;;6.40;4.20;;;11.30;95.00;;;10.05;89.99;98970.34;5000686;28;20621;-72
2022/07/08 03:23:37;;;;;;;9.67;4.17;;;11.30;95.30;;;10.06;89.76;98969.31;5013100;28;20451;-73
2022/07/08 03:26:04;;;;;;;12.73;4.00;;;11.30;95.60;;;10.11;89.13;98976.00;5000846;28;20961;-72
2022/07/08 03:28:32;;;;;;;5.73;3.70;;;11.30;95.50;;;10.21;87.81;98973.84;4999859;28;20495;-73
2022/07/08 03:30:59;;;;;;;4.07;2.80;;;11.40;95.10;;;10.20;87.85;98981.09;4992924;28;20452;-73
2022/07/08 03:33:27;;;;;;;11.83;3.87;;;11.40;94.00;;;10.38;86.00;98982.53;4998315;28;20455;-75
2022/07/08 03:35:56;;;;;;;5.83;3.90;;;11.50;92.90;;;9.94;85.64;98902.50;4996169;28;20947;-72
2022/07/08 03:38:23;;;;;;;10.27;3.80;;;11.60;92.40;;;10.52;85.37;98982.72;4998335;28;20525;-73
2022/07/08 03:43:36;;;;;;;4.60;2.73;;;11.80;91.80;;;10.60;84.55;98988.84;4999677;28;20477;-73
2022/07/08 03:46:03;;;;;;;7.80;3.57;;;11.80;91.50;;;10.71;84.72;98992.91;4998902;28;20963;-73
2022/07/08 03:48:31;;;;;;;6.27;3.33;;;11.90;91.50;;;10.86;83.30;98995.53;4994980;28;21190;-72
2022/07/08 03:51:00;;;;;;;8.13;3.43;;;12.00;90.80;;;10.82;83.66;98993.41;4997979;28;20485;-73
2022/07/08 03:53:27;;;;;;;3.67;2.97;;;12.00;90.80;;;10.85;83.41;99001.97;4999861;28;20520;-72
2022/07/08 03:55:55;;;;;;;12.80;3.60;;;12.00;90.70;;;10.93;83.05;98994.78;5010875;28;20470;-74
2022/07/08 03:58:22;;;;;;;3.30;2.93;;;12.00;90.70;;;10.91;82.51;98992.25;5001117;28;20554;-74
2022/07/08 04:00:49;;;;;;;3.13;2.47;;;12.10;90.10;;;10.99;80.80;98997.53;4999210;28;20453;-75
2022/07/08 04:03:17;;;;;;;5.07;3.10;;;12.10;89.10;;;10.94;81.15;98997.28;4996486;28;20456;-73
2022/07/08 04:05:44;;;;;;;6.83;3.03;;;12.10;88.70;;;11.00;80.89;98999.22;5001475;28;20464;-74
2022/07/08 04:08:13;;;;;;;3.50;2.87;;;12.20;88.30;;;10.94;81.34;99008.09;5004028;28;20648;-73
2022/07/08 04:10:40;;;;;;;7.00;3.20;;;12.10;88.00;;;10.96;81.14;99006.03;4998906;28;20459;-73
2022/07/08 04:13:07;;;;;;;4.70;3.00;;;12.10;87.90;;;11.01;80.60;99003.59;5000615;28;20463;-73
2022/07/08 04:15:35;;;;;;;4.97;2.97;;;12.20;87.70;;;11.01;79.11;98994.63;5002208;28;20469;-74
2022/07/08 04:18:02;;;;;;;3.90;2.60;;;12.20;86.30;;;11.26;79.26;99003.16;4996702;28;20468;-72
2022/07/08 04:20:31;;;;;;;8.37;3.07;;;12.30;86.20;;;11.33;78.10;98998.66;4994328;28;21244;-72
2022/07/08 04:22:58;;;;;;;5.33;2.93;;;12.40;85.10;;;11.55;77.39;99005.91;4999271;28;20472;-73
2022/07/08 04:25:27;;;;;;;4.10;2.70;;;12.60;84.00;;;11.36;77.33;99018.22;4998351;28;20519;-72
2022/07/08 04:27:54;;;;;;;4.17;2.47;;;12.50;83.50;;;11.30;78.05;99019.84;5002630;28;20569;-72
2022/07/08 04:30:21;;;;;;;6.13;2.83;;;12.50;83.80;;;11.36;77.80;99020.94;5000208;28;20478;-73
2022/07/08 04:32:49;;;;;;;7.70;2.90;;;12.50;84.40;;;11.58;76.71;99014.44;5014951;28;20468;-73
2022/07/08 04:35:16;;;;;;;7.60;3.17;;;12.60;83.50;;;11.72;76.23;99025.34;5011503;28;20937;-72
2022/07/08 04:37:43;;;;;;;8.20;3.63;;;12.80;83.00;;;11.67;76.14;99025.13;4999182;28;20532;-75
2022/07/08 04:40:11;;;;;;;4.67;3.13;;;12.80;82.60;;;11.69;75.94;99025.75;5000430;28;20950;-72
2022/07/08 04:42:40;;;;;;;7.67;3.13;;;12.80;82.30;;;11.67;76.04;99027.81;4999562;28;20838;-73
2022/07/08 04:45:09;;;;;;;4.73;2.90;;;12.80;82.20;;;10.96;75.68;98908.69;4999716;28;20534;-73
2022/07/08 04:47:36;;;;;;;6.43;3.00;;;12.80;82.10;;;11.88;74.52;99035.88;4999969;28;20451;-75
2022/07/08 04:50:04;;;;;;;11.23;3.40;;;13.00;81.50;;;11.69;75.96;99042.00;5002367;28;20459;-73
2022/07/08 04:52:32;;;;;;;4.00;2.80;;;12.90;82.00;;;11.65;75.70;99024.47;5003773;28;20482;-74
2022/07/08 04:54:59;;;;;;;3.57;2.87;;;12.90;82.10;;;11.67;75.26;99038.66;4998202;28;20469;-72
2022/07/08 04:57:26;;;;;;;5.10;3.30;;;12.90;81.70;;;11.73;75.15;99037.84;4992256;28;20496;-74
2022/07/08 04:59:54;;;;;;;6.13;2.93;;;12.90;81.80;;;11.89;75.11;99048.38;5005384;28;20561;-72
2022/07/08 05:02:22;;;;;;;4.83;3.10;;;13.00;81.50;;;12.05;74.18;99046.41;5001725;28;20471;-77
2022/07/08 05:04:49;;;;;;;4.90;2.83;;;13.10;81.40;;;12.24;73.89;99042.13;4999031;28;20459;-74
2022/07/08 05:07:16;;;;;;;6.80;3.40;;;13.20;81.10;;;12.11;73.81;99050.19;4998385;28;20491;-77
2022/07/08 05:09:43;;;;;;;6.03;3.17;;;13.20;80.30;;;12.02;74.25;99044.09;5003465;28;20470;-77
2022/07/08 05:12:11;;;;;;;6.27;2.83;;;13.20;80.70;;;12.08;73.91;99029.78;5011554;28;20467;-77
2022/07/08 05:14:39;;;;;;;7.03;3.10;;;13.30;80.70;;;12.21;73.78;99045.25;5001415;28;20509;-78
2022/07/08 05:17:08;;;;;;;3.77;3.13;;;13.30;80.40;;;12.17;72.94;99044.00;5002069;28;20554;-74
2022/07/08 05:19:37;;;;;;;4.93;2.60;;;13.30;80.00;;;11.98;72.78;99015.72;4997484;28;20459;-72
2022/07/08 05:22:04;;;;;;;6.93;3.13;;;13.30;79.90;;;11.92;72.93;98992.16;5000866;28;20490;-79
2022/07/08 05:24:32;;;;;;;4.27;2.23;;;13.40;80.10;;;12.45;71.74;99064.75;4998025;28;20460;-76
2022/07/08 05:26:59;;;;;;;4.00;2.37;;;13.50;79.00;;;12.47;71.17;99057.25;4999733;28;20464;-78
2022/07/08 05:29:26;;;;;;;2.87;2.27;;;13.50;78.60;;;12.56;71.65;99068.75;5004431;28;20473;-75
2022/07/08 05:31:54;;;;;;;6.10;3.20;;;13.60;78.70;;;12.71;71.32;99066.72;5018432;28;20993;-79
2022/07/08 05:34:23;;;;;;;5.07;2.70;;;13.80;78.70;;;12.94;69.66;99056.56;5013257;28;21020;-78
2022/07/08 05:36:50;;;;;;;5.23;2.30;;;13.90;78.00;;;13.26;68.77;99078.53;5014883;28;20460;-78
2022/07/08 05:39:17;;;;;;;3.07;2.50;;;14.20;77.30;;;13.25;68.64;99034.25;5008140;28;20471;-79
2022/07/08 05:41:46;;;;;;;5.90;2.77;;;14.40;77.40;;;13.85;67.92;99076.88;4999093;28;20499;-83
2022/07/08 05:44:13;;;;;;;4.90;3.00;;;14.70;77.10;;;14.12;66.60;99074.09;4995370;28;20458;-77
2022/07/08 05:46:40;;;;;;;9.00;3.30;;;15.00;76.40;;;14.17;66.47;99062.59;4997413;28;20479;-78
2022/07/08 05:49:08;;;;;;;8.07;2.97;;;15.30;76.00;;;14.42;65.60;99081.75;5012844;28;20460;-78
2022/07/08 05:51:37;;;;;;;4.63;2.50;;;15.40;75.30;;;14.46;66.10;99079.44;5016050;28;20456;-78
2022/07/08 05:54:04;;;;;;;7.60;2.73;;;15.50;75.10;;;14.21;64.92;99036.66;4993981;28;20951;-78
2022/07/08 05:56:32;;;;;;;7.87;2.67;;;15.50;74.20;;;14.60;64.57;99082.94;5001414;28;20457;-79
2022/07/08 05:58:59;;;;;;;4.37;2.07;;;15.60;74.00;;;14.63;64.05;99093.38;5002076;28;20493;-77
2022/07/08 06:01:26;;;;;;;4.00;2.30;;;15.70;73.20;;;14.47;63.62;99099.31;5002983;28;20962;-77
2022/07/08 06:03:54;;;;;;;3.33;2.00;;;15.50;72.60;;;14.30;64.39;99100.63;5006048;28;20456;-80
2022/07/08 06:06:21;;;;;;;3.13;1.40;;;15.40;72.60;;;14.17;63.94;99101.47;5000658;28;20470;-79
2022/07/08 06:08:49;;;;;;;6.23;2.33;;;15.20;72.20;;;14.01;64.39;99104.63;5008872;28;20459;-79
2022/07/08 06:11:17;;;;;;;2.80;1.80;;;15.10;72.00;;;14.01;64.36;99113.63;5003377;28;20449;-79
2022/07/08 06:13:44;;;;;;;6.30;1.90;;;15.10;72.20;;;14.15;63.63;99119.06;4995063;28;20463;-78
2022/07/08 06:16:11;;;;;;;4.70;2.30;;;15.20;71.90;;;14.00;63.96;99108.41;5007499;28;20491;-78
2022/07/08 06:18:39;;;;;;;7.70;2.03;;;15.10;71.60;;;13.96;63.38;99099.00;5009477;28;20469;-79
2022/07/08 06:21:06;;;;;;;5.67;2.33;;;15.10;71.40;;;14.09;63.89;99117.16;4989122;28;20524;-78
2022/07/08 06:23:34;;;;;;;7.30;2.37;;;15.10;71.50;;;13.99;63.36;99110.31;5021869;28;20516;-79
2022/07/08 06:26:03;;;;;;;3.63;1.93;;;15.10;71.10;;;14.10;64.21;99122.41;4989534;28;20452;-79
2022/07/08 06:28:31;;;;;;;3.40;2.37;;;15.20;71.90;;;14.32;63.78;99113.97;5002512;28;20538;-78
2022/07/08 06:30:58;;;;;;;5.60;1.63;;;15.40;71.80;;;14.55;62.78;99118.09;5001105;28;20464;-80
2022/07/08 06:33:26;;;;;;;6.37;2.47;;;15.60;71.60;;;14.64;62.03;99125.00;4998164;28;20547;-77
2022/07/08 06:35:53;;;;;;;4.80;2.17;;;15.70;70.40;;;14.37;62.84;99119.63;4988280;28;20827;-80
2022/07/08 06:38:21;;;;;;;6.87;2.30;;;15.50;70.50;;;14.17;63.63;99115.06;5002877;28;20469;-78
2022/07/08 06:40:48;;;;;;;4.13;1.97;;;15.30;70.90;;;14.29;62.92;99122.56;5000458;28;20457;-79
2022/07/08 06:43:17;;;;;;;6.83;2.10;;;15.40;70.80;;;14.38;63.08;99118.59;5010247;28;20497;-81
2022/07/08 06:45:46;;;;;;;3.83;2.20;;;15.40;71.00;;;14.60;62.58;99123.72;5007690;28;20552;-80
2022/07/08 06:48:13;;;;;;;5.03;2.03;;;15.60;71.00;;;14.64;62.27;99121.41;5008720;28;20460;-80
2022/07/08 06:50:41;;;;;;;4.17;2.23;;;15.70;70.60;;;14.42;62.98;99125.25;5011412;28;20515;-80
2022/07/08 06:53:08;;;;;;;5.90;2.00;;;15.60;70.60;;;14.37;63.19;99133.22;5000086;28;20963;-79
2022/07/08 06:55:36;;;;;;;4.50;2.10;;;15.50;70.60;;;14.35;62.67;99134.47;5000607;28;20465;-79
2022/07/08 06:58:04;;;;;;;3.43;2.10;;;15.50;70.60;;;14.10;63.76;99144.13;5000591;28;20560;-77
2022/07/08 07:00:32;;;;;;;7.63;2.27;;;15.30;70.80;;;14.35;63.61;99142.63;4997075;28;20451;-77
2022/07/08 07:02:59;;;;;;;7.17;1.90;;;15.30;71.40;;;14.17;63.31;99139.50;5002623;28;20473;-78
2022/07/08 07:05:27;;;;;;;2.43;1.80;;;15.30;70.80;;;14.10;64.14;99154.16;4998826;28;20546;-79
2022/07/08 07:07:54;;;;;;;5.63;2.10;;;15.20;71.10;;;14.14;63.75;99145.38;5020751;28;20465;-77
2022/07/08 07:10:21;;;;;;;4.87;2.27;;;15.20;71.20;;;14.28;63.27;99157.09;5001999;28;20966;-77
2022/07/08 07:12:49;;;;;;;9.30;2.70;;;15.30;70.70;;;14.28;63.70;99157.09;5003441;28;20486;-79
2022/07/08 07:15:16;;;;;;;5.13;1.97;;;15.30;70.90;;;14.48;63.23;99158.06;5002779;28;20467;-77
2022/07/08 07:17:44;;;;;;;3.50;1.73;;;15.50;70.90;;;14.51;63.05;99160.38;4983393;28;20455;-78
2022/07/08 07:20:12;;;;;;;5.13;1.87;;;15.50;70.80;;;14.75;62.25;99161.59;4998289;28;21252;-78
2022/07/08 07:22:39;;;;;;;3.97;1.97;;;15.70;70.60;;;14.78;62.24;99163.03;4998870;28;20479;-79
2022/07/08 07:25:11;;;;;;;3.60;1.97;;;15.80;70.20;;;15.14;61.01;99164.34;5000689;28;20452;-77
2022/07/08 07:27:38;;;;;;;4.90;2.20;;;16.10;69.90;;;15.38;61.05;99159.16;4997415;28;20463;-77
2022/07/08 07:30:06;;;;;;;3.60;1.53;;;16.30;69.70;;;15.18;61.00;99162.03;4996920;28;20456;-66
2022/07/08 07:32:34;;;;;;;6.70;2.17;;;16.30;69.60;;;15.20;61.06;99168.91;5001612;28;20534;-70
2022/07/08 07:35:03;;;;;;;5.17;2.07;;;16.20;69.40;;;15.02;60.21;99109.78;4993930;28;20826;-72
2022/07/08 07:37:35;;;;;;;9.20;2.00;;;16.40;69.00;;;15.20;58.75;99098.13;4992179;28;20515;-75
2022/07/08 07:40:03;;;;;;;2.70;1.70;;;16.50;67.90;;;15.88;57.91;99163.84;4998236;28;20462;-75
2022/07/08 07:42:30;;;;;;;3.50;1.97;;;16.80;67.40;;;15.76;58.40;99158.28;5009902;28;20727;-75
2022/07/08 07:44:57;;;;;;;4.07;1.70;;;16.70;66.80;;;15.76;58.18;99160.16;5011686;28;20954;-74
2022/07/08 07:47:25;;;;;;;5.67;2.37;;;16.70;66.80;;;15.85;57.67;99165.16;5011074;28;20464;-71
2022/07/08 07:49:52;;;;;;;3.43;1.73;;;16.80;66.60;;;15.98;57.36;99160.66;5000057;28;20465;-77
2022/07/08 07:52:21;;;;;;;4.27;1.90;;;16.90;66.40;;;16.08;56.79;99169.16;4999599;28;20461;-73
2022/07/08 07:54:49;;;;;;;4.17;2.37;;;17.10;65.90;;;16.45;56.48;99159.38;5002514;28;20474;-73
2022/07/08 07:57:17;;;;;;;6.50;2.30;;;17.40;65.80;;;16.55;55.76;99116.03;5000916;28;20463;-74
2022/07/08 07:59:45;;;;;;;4.03;1.47;;;17.80;65.30;;;16.58;56.23;99159.22;5002837;28;20459;-74
2022/07/08 08:02:12;;;;;;;5.50;2.00;;;17.70;65.00;;;16.39;56.95;99152.94;5005125;28;20815;-74
2022/07/08 08:04:41;;;;;;;4.67;2.40;;;17.60;65.40;;;16.54;57.49;99152.56;5000189;28;20847;-75
2022/07/08 08:07:08;;;;;;;8.50;2.33;;;17.50;66.10;;;16.17;57.67;99153.34;4997219;28;20538;-73
2022/07/08 08:09:37;;;;;;;4.80;1.87;;;17.30;65.20;;;16.14;58.37;99145.63;4996953;28;20466;-76
2022/07/08 08:12:05;;;;;;;5.77;2.20;;;17.30;66.20;;;16.14;56.96;99151.09;5003447;28;20519;-74
2022/07/08 08:14:33;;;;;;;5.40;2.10;;;17.30;65.30;;;15.80;58.27;99148.63;4992364;28;20590;-74
2022/07/08 08:17:00;;;;;;;7.33;1.93;;;16.90;65.70;;;16.15;57.98;99163.66;4998934;28;20536;-75
2022/07/08 08:19:28;;;;;;;5.30;2.37;;;17.10;66.00;;;16.24;57.29;99162.31;4998121;28;20506;-70
2022/07/08 08:21:55;;;;;;;5.43;1.80;;;17.30;65.70;;;16.14;56.17;99162.81;5002291;28;20467;-71
2022/07/08 08:24:22;;;;;;;3.57;1.83;;;17.30;64.20;;;16.20;56.64;99168.44;5002096;28;20518;-71
2022/07/08 08:26:51;;;;;;;6.47;1.87;;;17.20;64.60;;;16.44;57.28;99161.28;5005472;28;20523;-71
2022/07/08 08:29:18;;;;;;;6.73;2.57;;;17.40;65.30;;;16.88;55.41;99168.56;5000988;28;21226;-71
2022/07/08 08:31:45;;;;;;;5.43;2.00;;;17.80;64.70;;;16.80;56.22;99167.78;5006407;28;20517;-71
2022/07/08 08:34:12;;;;;;;6.00;1.93;;;17.80;64.50;;;16.67;55.52;99165.22;4997909;28;20464;-72
2022/07/08 08:36:40;;;;;;;3.40;1.90;;;17.70;63.90;;;17.02;54.46;99170.09;5005788;28;20462;-71
2022/07/08 08:39:07;;;;;;;4.70;1.97;;;18.00;63.50;;;17.28;54.19;99170.78;4997762;28;20462;-75
2022/07/08 08:41:36;;;;;;;5.00;2.80;;;18.20;63.10;;;16.80;55.14;99175.16;4996978;28;20636;-73
2022/07/08 08:44:05;;;;;;;5.03;1.87;;;18.00;63.00;;;16.96;54.62;99171.81;5011308;28;21060;-71
2022/07/08 08:46:33;;;;;;;3.20;1.57;;;18.00;62.60;;;17.06;54.51;99178.63;5002673;28;21073;-72
2022/07/08 08:49:03;;;;;;;3.77;1.90;;;18.00;62.80;;;17.10;53.22;99180.69;4995831;28;20457;-75
2022/07/08 08:51:34;;;;;;;3.60;2.20;;;18.00;61.60;;;17.25;52.28;99172.09;5002195;28;20529;-73
2022/07/08 08:54:05;;;;;;;3.60;2.23;;;18.20;61.10;;;17.72;51.00;99173.31;5017134;28;20458;-79
2022/07/08 08:56:34;;;;;;;4.17;2.03;;;18.60;60.10;;;17.86;50.89;99175.84;5006022;28;20458;-77
2022/07/08 08:59:05;;;;;;;2.80;1.60;;;18.80;59.70;;;17.72;50.79;99176.03;5002826;28;20486;-74
2022/07/08 09:01:32;;;;;;;3.30;2.07;;;18.80;59.30;;;17.97;49.83;99134.03;4999551;28;20495;-75
2022/07/08 09:04:00;;;;;;;3.90;1.53;;;19.10;59.40;;;18.27;48.21;99185.03;4998714;28;20487;-78
2022/07/08 09:06:28;;;;;;;3.50;1.60;;;19.10;57.80;;;18.26;48.50;99176.00;4996121;28;20463;-74
2022/07/08 09:08:55;;;;;;;3.27;1.90;;;19.30;57.20;;;18.81;47.85;99182.16;4994063;28;20486;-76
2022/07/08 09:11:22;;;;;;;4.10;1.67;;;19.60;57.50;;;18.65;49.19;99183.72;5011984;28;20464;-78
2022/07/08 09:14:18;;;;;;;3.20;1.60;;;19.60;58.00;;;18.41;49.57;99183.72;4997372;28;20466;-74
2022/07/08 09:17:09;;;;;;;3.33;1.80;;;19.40;58.00;;;18.29;49.02;99188.41;4999668;28;20570;-80
2022/07/08 09:19:36;;;;;;;3.87;2.13;;;19.30;57.70;;;18.44;49.08;99185.16;4996322;28;20557;-74
2022/07/08 09:22:05;;;;;;;5.50;1.70;;;19.30;57.80;;;17.87;50.35;99180.22;4994778;28;20457;-74
2022/07/08 09:24:32;;;;;;;3.03;1.83;;;19.00;57.70;;;17.83;51.30;99182.59;4995146;28;20479;-74
2022/07/08 09:27:04;;;;;;;7.53;2.10;;;18.80;58.70;;;17.87;50.74;99177.50;4999927;28;20471;-74
2022/07/08 09:29:34;;;;;;;4.40;1.90;;;18.90;58.30;;;18.21;48.52;99183.25;4998818;28;21012;-74
2022/07/08 09:32:16;;;;;;;3.63;1.67;;;19.10;57.00;;;18.24;47.67;99177.31;4997952;28;20502;-75
2022/07/08 09:34:44;;;;;;;3.37;1.80;;;19.10;56.30;;;18.37;48.25;99177.06;5015625;28;20471;-74
2022/07/08 09:37:13;;;;;;;3.13;1.70;;;19.10;56.80;;;18.75;47.31;99165.88;4994365;28;20522;-73
2022/07/08 09:39:41;;;;;;;2.87;1.80;;;19.60;56.40;;;19.17;46.91;99183.97;4995041;28;20816;-72
2022/07/08 09:42:09;;;;;;;2.10;1.60;;;19.90;56.30;;;18.63;48.50;99191.34;4993253;28;20452;-72
2022/07/08 09:44:39;;;;;;;3.33;1.63;;;19.80;56.60;;;18.18;49.11;99186.47;4995011;28;20557;-73
2022/07/08 09:47:14;;;;;;;2.27;1.70;;;19.30;56.40;;;17.84;49.80;99187.84;5000045;28;20473;-77
2022/07/08 09:49:44;;;;;;;3.93;1.90;;;18.80;56.60;;;17.88;48.32;99166.31;4997952;28;20463;-73
2022/07/08 09:52:20;;;;;;;5.33;2.20;;;18.80;56.00;;;18.10;48.52;99163.06;5000090;28;20530;-73
2022/07/08 09:55:01;;;;;;;5.40;2.10;;;19.10;56.00;;;18.51;48.95;99165.88;4992367;28;20476;-73
2022/07/08 09:57:29;;;;;;;3.33;1.83;;;19.50;56.60;;;19.17;46.58;99162.06;5012069;28;20463;-72
2022/07/08 09:59:58;;;;;;;3.83;1.80;;;20.00;55.70;;;19.33;46.84;99166.75;4997348;28;20470;-73
2022/07/08 10:02:28;;;;;;;4.10;1.63;;;20.20;56.00;;;18.76;47.53;99170.25;5000212;28;20496;-72
2022/07/08 10:04:56;;;;;;;3.60;2.10;;;19.90;55.50;;;18.16;49.21;99169.47;5010094;28;20490;-74
2022/07/08 10:07:23;;;;;;;4.87;1.57;;;19.50;55.90;;;18.07;49.28;99167.09;5012815;28;20523;-75
2022/07/08 10:09:50;;;;;;;5.20;2.00;;;19.20;56.00;;;18.05;48.99;99166.50;4995731;28;20558;-71
2022/07/08 10:12:19;;;;;;;2.70;1.73;;;19.00;56.00;;;18.65;47.92;99171.94;5011776;28;20542;-71
2022/07/08 10:14:47;;;;;;;3.23;1.47;;;19.40;55.90;;;18.61;46.24;99166.13;4993359;28;21046;-72
2022/07/08 10:17:18;;;;;;;6.97;2.03;;;19.60;54.30;;;19.13;44.60;99169.94;5008511;28;20469;-72
2022/07/08 10:19:49;;;;;;;1.93;1.53;;;20.00;53.70;;;19.74;42.98;99182.28;5001734;28;20491;-73
2022/07/08 10:22:17;;;;;;;3.37;2.00;;;20.40;53.10;;;19.99;43.59;99173.69;5000722;28;20937;-73
2022/07/08 10:24:47;;;;;;;2.90;1.40;;;20.80;53.30;;;20.35;43.48;99165.19;4996547;28;20490;-73
2022/07/08 10:27:14;;;;;;;3.03;1.50;;;21.10;53.30;;;20.21;42.65;99172.91;5016713;28;21044;-73
2022/07/08 10:29:41;;;;;;;4.70;1.67;;;21.10;52.60;;;20.23;42.65;99173.50;4998899;28;20483;-71